sensor_id;sensor_type;location;lat;lon;timestamp;P1;durP1;ratioP1;P2;durP2;ratioP2
9675;SDS011;4876;42.656;23.292;2023-06-10T00:00:40;10.77;;;8.77;;
9675;SDS011;4876;42.656;23.292;2023-06-10T00:03:07;11.77;;;9.87;;
9675;SDS011;4876;42.656;23.292;2023-06-10T00:05:34;13.60;;;9.33;;
9675;SDS011;4876;42.656;23.292;2023-06-10T00:08:02;11.63;;;9.80;;
9675;SDS011;4876;42.656;23.292;2023-06-10T00:10:32;19.43;;;11.27;;
9675;SDS011;4876;42.656;23.292;2023-06-10T00:13:00;12.87;;;10.03;;
9675;SDS011;4876;42.656;23.292;2023-06-10T00:15:27;12.87;;;9.27;;
9675;SDS011;4876;42.656;23.292;2023-06-10T00:17:54;11.23;;;8.53;;
9675;SDS011;4876;42.656;23.292;2023-06-10T00:20:21;9.53;;;6.73;;
9675;SDS011;4876;42.656;23.292;2023-06-10T00:22:49;10.53;;;6.87;;
9675;SDS011;4876;42.656;23.292;2023-06-10T00:25:17;9.43;;;6.60;;
9675;SDS011;4876;42.656;23.292;2023-06-10T00:27:44;13.23;;;7.17;;
9675;SDS011;4876;42.656;23.292;2023-06-10T00:30:11;11.23;;;7.30;;
9675;SDS011;4876;42.656;23.292;2023-06-10T00:32:39;8.63;;;7.30;;
9675;SDS011;4876;42.656;23.292;2023-06-10T00:35:06;11.00;;;9.23;;
9675;SDS011;4876;42.656;23.292;2023-06-10T00:37:33;11.80;;;9.47;;
9675;SDS011;4876;42.656;23.292;2023-06-10T00:40:01;13.53;;;10.97;;
9675;SDS011;4876;42.656;23.292;2023-06-10T00:42:30;17.13;;;10.90;;
9675;SDS011;4876;42.656;23.292;2023-06-10T00:44:57;12.73;;;11.30;;
9675;SDS011;4876;42.656;23.292;2023-06-10T00:47:25;13.33;;;11.53;;
9675;SDS011;4876;42.656;23.292;2023-06-10T00:49:52;13.63;;;12.17;;
9675;SDS011;4876;42.656;23.292;2023-06-10T00:52:20;17.13;;;12.70;;
9675;SDS011;4876;42.656;23.292;2023-06-10T00:54:50;13.73;;;11.10;;
9675;SDS011;4876;42.656;23.292;2023-06-10T00:57:17;14.70;;;11.30;;
9675;SDS011;4876;42.656;23.292;2023-06-10T00:59:47;15.03;;;11.73;;
9675;SDS011;4876;42.656;23.292;2023-06-10T01:02:15;11.10;;;10.00;;
9675;SDS011;4876;42.656;23.292;2023-06-10T01:04:42;13.47;;;9.97;;
9675;SDS011;4876;42.656;23.292;2023-06-10T01:07:10;13.70;;;9.93;;
9675;SDS011;4876;42.656;23.292;2023-06-10T01:09:45;11.77;;;9.23;;
9675;SDS011;4876;42.656;23.292;2023-06-10T01:12:23;13.87;;;9.10;;
9675;SDS011;4876;42.656;23.292;2023-06-10T01:14:59;13.77;;;8.97;;
9675;SDS011;4876;42.656;23.292;2023-06-10T01:17:26;11.87;;;9.23;;
9675;SDS011;4876;42.656;23.292;2023-06-10T01:19:55;13.97;;;8.97;;
9675;SDS011;4876;42.656;23.292;2023-06-10T01:22:24;11.90;;;8.33;;
9675;SDS011;4876;42.656;23.292;2023-06-10T01:24:53;10.97;;;9.80;;
9675;SDS011;4876;42.656;23.292;2023-06-10T01:27:23;15.00;;;9.13;;
9675;SDS011;4876;42.656;23.292;2023-06-10T01:29:58;10.93;;;8.60;;
9675;SDS011;4876;42.656;23.292;2023-06-10T01:32:32;11.10;;;8.87;;
9675;SDS011;4876;42.656;23.292;2023-06-10T01:35:01;10.23;;;8.53;;
9675;SDS011;4876;42.656;23.292;2023-06-10T01:37:32;13.17;;;9.07;;
9675;SDS011;4876;42.656;23.292;2023-06-10T01:40:00;12.27;;;8.80;;
9675;SDS011;4876;42.656;23.292;2023-06-10T01:42:31;14.37;;;8.50;;
9675;SDS011;4876;42.656;23.292;2023-06-10T01:44:58;12.30;;;8.70;;
9675;SDS011;4876;42.656;23.292;2023-06-10T01:47:25;15.37;;;8.57;;
9675;SDS011;4876;42.656;23.292;2023-06-10T01:49:51;10.07;;;8.83;;
9675;SDS011;4876;42.656;23.292;2023-06-10T01:52:18;12.40;;;8.70;;
9675;SDS011;4876;42.656;23.292;2023-06-10T01:54:46;11.90;;;8.17;;
9675;SDS011;4876;42.656;23.292;2023-06-10T01:57:13;9.13;;;8.23;;
9675;SDS011;4876;42.656;23.292;2023-06-10T01:59:40;11.57;;;7.83;;
9675;SDS011;4876;42.656;23.292;2023-06-10T02:02:09;8.77;;;7.87;;
9675;SDS011;4876;42.656;23.292;2023-06-10T02:04:37;9.13;;;7.90;;
9675;SDS011;4876;42.656;23.292;2023-06-10T02:07:04;10.60;;;7.83;;
9675;SDS011;4876;42.656;23.292;2023-06-10T02:09:31;10.17;;;7.87;;
9675;SDS011;4876;42.656;23.292;2023-06-10T02:12:01;12.20;;;7.97;;
9675;SDS011;4876;42.656;23.292;2023-06-10T02:14:29;10.70;;;7.63;;
9675;SDS011;4876;42.656;23.292;2023-06-10T02:16:55;11.83;;;7.60;;
9675;SDS011;4876;42.656;23.292;2023-06-10T02:19:22;10.87;;;7.67;;
9675;SDS011;4876;42.656;23.292;2023-06-10T02:21:50;10.63;;;7.33;;
9675;SDS011;4876;42.656;23.292;2023-06-10T02:24:17;12.80;;;7.57;;
9675;SDS011;4876;42.656;23.292;2023-06-10T02:26:44;9.10;;;7.27;;
9675;SDS011;4876;42.656;23.292;2023-06-10T02:29:14;11.93;;;7.83;;
9675;SDS011;4876;42.656;23.292;2023-06-10T02:31:41;8.97;;;7.07;;
9675;SDS011;4876;42.656;23.292;2023-06-10T02:34:07;13.47;;;7.50;;
9675;SDS011;4876;42.656;23.292;2023-06-10T02:36:34;13.00;;;8.03;;
9675;SDS011;4876;42.656;23.292;2023-06-10T02:39:02;8.53;;;6.77;;
9675;SDS011;4876;42.656;23.292;2023-06-10T02:41:29;9.50;;;7.30;;
9675;SDS011;4876;42.656;23.292;2023-06-10T02:43:56;15.30;;;6.70;;
9675;SDS011;4876;42.656;23.292;2023-06-10T02:46:24;11.73;;;7.30;;
9675;SDS011;4876;42.656;23.292;2023-06-10T02:48:51;10.83;;;7.37;;
9675;SDS011;4876;42.656;23.292;2023-06-10T02:51:18;13.43;;;7.83;;
9675;SDS011;4876;42.656;23.292;2023-06-10T02:53:45;9.53;;;7.40;;
9675;SDS011;4876;42.656;23.292;2023-06-10T02:56:13;11.63;;;7.20;;
9675;SDS011;4876;42.656;23.292;2023-06-10T02:58:42;8.87;;;7.80;;
9675;SDS011;4876;42.656;23.292;2023-06-10T03:01:09;9.13;;;8.03;;
9675;SDS011;4876;42.656;23.292;2023-06-10T03:03:37;15.57;;;8.07;;
9675;SDS011;4876;42.656;23.292;2023-06-10T03:06:07;10.43;;;8.17;;
9675;SDS011;4876;42.656;23.292;2023-06-10T03:08:35;9.00;;;8.10;;
9675;SDS011;4876;42.656;23.292;2023-06-10T03:11:02;10.93;;;8.07;;
9675;SDS011;4876;42.656;23.292;2023-06-10T03:13:29;14.33;;;9.10;;
9675;SDS011;4876;42.656;23.292;2023-06-10T03:15:56;13.03;;;8.17;;
9675;SDS011;4876;42.656;23.292;2023-06-10T03:18:25;13.47;;;8.30;;
9675;SDS011;4876;42.656;23.292;2023-06-10T03:20:54;10.07;;;8.07;;
9675;SDS011;4876;42.656;23.292;2023-06-10T03:23:21;10.10;;;8.13;;
9675;SDS011;4876;42.656;23.292;2023-06-10T03:25:48;12.10;;;7.70;;
9675;SDS011;4876;42.656;23.292;2023-06-10T03:28:15;8.60;;;7.70;;
9675;SDS011;4876;42.656;23.292;2023-06-10T03:30:41;10.20;;;7.60;;
9675;SDS011;4876;42.656;23.292;2023-06-10T03:33:08;12.20;;;8.43;;
9675;SDS011;4876;42.656;23.292;2023-06-10T03:35:35;9.53;;;7.10;;
9675;SDS011;4876;42.656;23.292;2023-06-10T03:38:03;8.33;;;7.00;;
9675;SDS011;4876;42.656;23.292;2023-06-10T03:40:31;9.37;;;6.93;;
9675;SDS011;4876;42.656;23.292;2023-06-10T03:42:58;8.90;;;7.40;;
9675;SDS011;4876;42.656;23.292;2023-06-10T03:45:25;13.27;;;8.57;;
9675;SDS011;4876;42.656;23.292;2023-06-10T03:47:53;9.17;;;8.27;;
9675;SDS011;4876;42.656;23.292;2023-06-10T03:50:20;9.60;;;8.70;;
9675;SDS011;4876;42.656;23.292;2023-06-10T03:52:48;9.43;;;8.40;;
9675;SDS011;4876;42.656;23.292;2023-06-10T03:55:16;10.00;;;8.87;;
9675;SDS011;4876;42.656;23.292;2023-06-10T03:57:43;14.00;;;8.67;;
9675;SDS011;4876;42.656;23.292;2023-06-10T04:00:10;9.70;;;8.67;;
9675;SDS011;4876;42.656;23.292;2023-06-10T04:02:38;9.90;;;8.87;;
9675;SDS011;4876;42.656;23.292;2023-06-10T04:05:10;10.63;;;8.77;;
9675;SDS011;4876;42.656;23.292;2023-06-10T04:07:37;10.20;;;8.23;;
9675;SDS011;4876;42.656;23.292;2023-06-10T04:10:06;16.57;;;9.00;;
9675;SDS011;4876;42.656;23.292;2023-06-10T04:12:35;11.30;;;9.03;;
9675;SDS011;4876;42.656;23.292;2023-06-10T04:15:02;11.07;;;9.90;;
9675;SDS011;4876;42.656;23.292;2023-06-10T04:17:29;14.70;;;9.93;;
9675;SDS011;4876;42.656;23.292;2023-06-10T04:19:56;12.23;;;10.13;;
9675;SDS011;4876;42.656;23.292;2023-06-10T04:22:24;11.53;;;10.33;;
9675;SDS011;4876;42.656;23.292;2023-06-10T04:24:51;11.73;;;10.07;;
9675;SDS011;4876;42.656;23.292;2023-06-10T04:27:18;10.37;;;9.43;;
9675;SDS011;4876;42.656;23.292;2023-06-10T04:29:46;13.57;;;11.00;;
9675;SDS011;4876;42.656;23.292;2023-06-10T04:32:13;14.97;;;10.50;;
9675;SDS011;4876;42.656;23.292;2023-06-10T04:34:40;12.80;;;8.63;;
9675;SDS011;4876;42.656;23.292;2023-06-10T04:37:07;8.83;;;7.83;;
9675;SDS011;4876;42.656;23.292;2023-06-10T04:39:34;14.23;;;8.60;;
9675;SDS011;4876;42.656;23.292;2023-06-10T04:42:01;9.47;;;8.57;;
9675;SDS011;4876;42.656;23.292;2023-06-10T04:44:28;11.43;;;9.67;;
9675;SDS011;4876;42.656;23.292;2023-06-10T04:46:57;12.30;;;10.60;;
9675;SDS011;4876;42.656;23.292;2023-06-10T04:49:24;11.57;;;9.80;;
9675;SDS011;4876;42.656;23.292;2023-06-10T04:51:51;12.27;;;9.80;;
9675;SDS011;4876;42.656;23.292;2023-06-10T04:54:17;12.43;;;10.57;;
9675;SDS011;4876;42.656;23.292;2023-06-10T04:56:44;12.23;;;10.63;;
9675;SDS011;4876;42.656;23.292;2023-06-10T04:59:11;11.37;;;10.03;;
9675;SDS011;4876;42.656;23.292;2023-06-10T05:01:39;11.63;;;10.07;;
9675;SDS011;4876;42.656;23.292;2023-06-10T05:04:08;13.83;;;9.73;;
9675;SDS011;4876;42.656;23.292;2023-06-10T05:06:35;12.73;;;11.07;;
9675;SDS011;4876;42.656;23.292;2023-06-10T05:09:02;12.83;;;11.20;;
9675;SDS011;4876;42.656;23.292;2023-06-10T05:11:29;13.30;;;11.57;;
9675;SDS011;4876;42.656;23.292;2023-06-10T05:13:57;15.10;;;11.70;;
9675;SDS011;4876;42.656;23.292;2023-06-10T05:16:24;15.83;;;12.17;;
9675;SDS011;4876;42.656;23.292;2023-06-10T05:18:51;16.30;;;12.47;;
9675;SDS011;4876;42.656;23.292;2023-06-10T05:21:19;13.47;;;12.03;;
9675;SDS011;4876;42.656;23.292;2023-06-10T05:23:46;17.23;;;11.67;;
9675;SDS011;4876;42.656;23.292;2023-06-10T05:26:13;14.53;;;12.40;;
9675;SDS011;4876;42.656;23.292;2023-06-10T05:28:40;14.80;;;12.10;;
9675;SDS011;4876;42.656;23.292;2023-06-10T05:31:07;12.97;;;11.53;;
9675;SDS011;4876;42.656;23.292;2023-06-10T05:33:33;14.53;;;11.97;;
9675;SDS011;4876;42.656;23.292;2023-06-10T05:36:00;13.97;;;12.03;;
9675;SDS011;4876;42.656;23.292;2023-06-10T05:38:28;16.80;;;12.07;;
9675;SDS011;4876;42.656;23.292;2023-06-10T05:40:55;15.17;;;11.93;;
9675;SDS011;4876;42.656;23.292;2023-06-10T05:43:24;12.53;;;11.33;;
9675;SDS011;4876;42.656;23.292;2023-06-10T05:45:50;13.87;;;11.40;;
9675;SDS011;4876;42.656;23.292;2023-06-10T05:48:17;12.60;;;11.30;;
9675;SDS011;4876;42.656;23.292;2023-06-10T05:50:45;13.57;;;10.50;;
9675;SDS011;4876;42.656;23.292;2023-06-10T05:53:13;12.00;;;10.47;;
9675;SDS011;4876;42.656;23.292;2023-06-10T05:55:42;12.67;;;10.40;;
9675;SDS011;4876;42.656;23.292;2023-06-10T05:58:09;11.97;;;9.30;;
9675;SDS011;4876;42.656;23.292;2023-06-10T06:00:37;11.50;;;9.57;;
9675;SDS011;4876;42.656;23.292;2023-06-10T06:03:05;13.00;;;9.73;;
9675;SDS011;4876;42.656;23.292;2023-06-10T06:05:33;12.53;;;9.83;;
9675;SDS011;4876;42.656;23.292;2023-06-10T06:08:02;10.53;;;8.30;;
9675;SDS011;4876;42.656;23.292;2023-06-10T06:10:29;13.30;;;8.77;;
9675;SDS011;4876;42.656;23.292;2023-06-10T06:12:57;10.87;;;7.83;;
9675;SDS011;4876;42.656;23.292;2023-06-10T06:15:24;11.70;;;8.03;;
9675;SDS011;4876;42.656;23.292;2023-06-10T06:17:51;10.17;;;7.90;;
9675;SDS011;4876;42.656;23.292;2023-06-10T06:20:18;11.27;;;7.57;;
9675;SDS011;4876;42.656;23.292;2023-06-10T06:22:45;12.10;;;8.47;;
9675;SDS011;4876;42.656;23.292;2023-06-10T06:25:12;12.90;;;8.43;;
9675;SDS011;4876;42.656;23.292;2023-06-10T06:27:39;11.07;;;9.00;;
9675;SDS011;4876;42.656;23.292;2023-06-10T06:30:08;11.63;;;8.87;;
9675;SDS011;4876;42.656;23.292;2023-06-10T06:32:35;8.90;;;7.77;;
9675;SDS011;4876;42.656;23.292;2023-06-10T06:35:02;11.60;;;7.37;;
9675;SDS011;4876;42.656;23.292;2023-06-10T06:37:31;10.13;;;7.90;;
9675;SDS011;4876;42.656;23.292;2023-06-10T06:39:57;9.27;;;7.90;;
9675;SDS011;4876;42.656;23.292;2023-06-10T06:42:24;11.40;;;7.47;;
9675;SDS011;4876;42.656;23.292;2023-06-10T06:44:51;11.20;;;7.80;;
9675;SDS011;4876;42.656;23.292;2023-06-10T06:47:19;11.10;;;7.60;;
9675;SDS011;4876;42.656;23.292;2023-06-10T06:49:46;11.30;;;7.33;;
9675;SDS011;4876;42.656;23.292;2023-06-10T06:52:13;10.83;;;7.73;;
9675;SDS011;4876;42.656;23.292;2023-06-10T06:54:41;12.07;;;6.77;;
9675;SDS011;4876;42.656;23.292;2023-06-10T06:57:08;9.17;;;6.37;;
9675;SDS011;4876;42.656;23.292;2023-06-10T06:59:34;7.37;;;6.30;;
9675;SDS011;4876;42.656;23.292;2023-06-10T07:02:02;6.80;;;6.07;;
9675;SDS011;4876;42.656;23.292;2023-06-10T07:04:30;7.53;;;6.00;;
9675;SDS011;4876;42.656;23.292;2023-06-10T07:06:57;22.03;;;6.77;;
9675;SDS011;4876;42.656;23.292;2023-06-10T07:09:24;14.03;;;7.20;;
9675;SDS011;4876;42.656;23.292;2023-06-10T07:11:50;9.07;;;6.73;;
9675;SDS011;4876;42.656;23.292;2023-06-10T07:14:17;9.77;;;5.80;;
9675;SDS011;4876;42.656;23.292;2023-06-10T07:16:44;8.97;;;6.33;;
9675;SDS011;4876;42.656;23.292;2023-06-10T07:19:13;9.47;;;5.60;;
9675;SDS011;4876;42.656;23.292;2023-06-10T07:21:41;9.87;;;5.87;;
9675;SDS011;4876;42.656;23.292;2023-06-10T07:24:08;7.03;;;5.23;;
9675;SDS011;4876;42.656;23.292;2023-06-10T07:26:35;8.23;;;5.43;;
9675;SDS011;4876;42.656;23.292;2023-06-10T07:29:01;9.77;;;4.60;;
9675;SDS011;4876;42.656;23.292;2023-06-10T07:31:28;10.07;;;4.70;;
9675;SDS011;4876;42.656;23.292;2023-06-10T07:33:55;10.60;;;4.53;;
9675;SDS011;4876;42.656;23.292;2023-06-10T07:36:22;8.83;;;4.83;;
9675;SDS011;4876;42.656;23.292;2023-06-10T07:38:50;8.37;;;4.97;;
9675;SDS011;4876;42.656;23.292;2023-06-10T07:41:17;9.83;;;4.77;;
9675;SDS011;4876;42.656;23.292;2023-06-10T07:43:44;9.37;;;4.60;;
9675;SDS011;4876;42.656;23.292;2023-06-10T07:46:11;11.80;;;5.13;;
9675;SDS011;4876;42.656;23.292;2023-06-10T07:48:38;6.50;;;5.10;;
9675;SDS011;4876;42.656;23.292;2023-06-10T07:51:05;5.33;;;4.83;;
9675;SDS011;4876;42.656;23.292;2023-06-10T07:53:31;7.73;;;4.70;;
9675;SDS011;4876;42.656;23.292;2023-06-10T07:56:00;7.87;;;5.03;;
9675;SDS011;4876;42.656;23.292;2023-06-10T07:58:26;9.03;;;4.73;;
9675;SDS011;4876;42.656;23.292;2023-06-10T08:00:54;8.80;;;4.80;;
9675;SDS011;4876;42.656;23.292;2023-06-10T08:03:21;6.97;;;5.03;;
9675;SDS011;4876;42.656;23.292;2023-06-10T08:05:48;5.53;;;4.90;;
9675;SDS011;4876;42.656;23.292;2023-06-10T08:08:15;7.77;;;5.20;;
9675;SDS011;4876;42.656;23.292;2023-06-10T08:10:42;4.47;;;3.80;;
9675;SDS011;4876;42.656;23.292;2023-06-10T08:13:10;5.87;;;3.63;;
9675;SDS011;4876;42.656;23.292;2023-06-10T08:15:37;11.30;;;3.87;;
9675;SDS011;4876;42.656;23.292;2023-06-10T08:18:04;10.23;;;4.47;;
9675;SDS011;4876;42.656;23.292;2023-06-10T08:20:31;11.20;;;5.10;;
9675;SDS011;4876;42.656;23.292;2023-06-10T08:22:58;7.90;;;4.63;;
9675;SDS011;4876;42.656;23.292;2023-06-10T08:25:24;6.93;;;4.93;;
9675;SDS011;4876;42.656;23.292;2023-06-10T08:27:51;9.40;;;4.80;;
9675;SDS011;4876;42.656;23.292;2023-06-10T08:30:23;8.87;;;4.90;;
9675;SDS011;4876;42.656;23.292;2023-06-10T08:32:49;5.23;;;4.30;;
9675;SDS011;4876;42.656;23.292;2023-06-10T08:35:17;6.03;;;4.80;;
9675;SDS011;4876;42.656;23.292;2023-06-10T08:37:44;8.33;;;4.73;;
9675;SDS011;4876;42.656;23.292;2023-06-10T08:40:11;6.73;;;4.53;;
9675;SDS011;4876;42.656;23.292;2023-06-10T08:42:39;9.03;;;4.27;;
9675;SDS011;4876;42.656;23.292;2023-06-10T08:45:12;4.40;;;4.00;;
9675;SDS011;4876;42.656;23.292;2023-06-10T08:47:45;8.40;;;4.27;;
9675;SDS011;4876;42.656;23.292;2023-06-10T08:50:14;6.57;;;4.17;;
9675;SDS011;4876;42.656;23.292;2023-06-10T08:52:43;7.67;;;3.60;;
9675;SDS011;4876;42.656;23.292;2023-06-10T08:55:12;4.97;;;3.63;;
9675;SDS011;4876;42.656;23.292;2023-06-10T08:57:43;6.03;;;4.10;;
9675;SDS011;4876;42.656;23.292;2023-06-10T09:00:11;6.57;;;3.83;;
9675;SDS011;4876;42.656;23.292;2023-06-10T09:02:39;5.47;;;4.33;;
9675;SDS011;4876;42.656;23.292;2023-06-10T09:05:08;5.47;;;4.97;;
9675;SDS011;4876;42.656;23.292;2023-06-10T09:07:35;4.43;;;4.03;;
9675;SDS011;4876;42.656;23.292;2023-06-10T09:10:02;6.10;;;3.80;;
9675;SDS011;4876;42.656;23.292;2023-06-10T09:12:32;6.17;;;4.30;;
9675;SDS011;4876;42.656;23.292;2023-06-10T09:14:59;5.63;;;4.13;;
9675;SDS011;4876;42.656;23.292;2023-06-10T09:17:26;5.63;;;4.00;;
9675;SDS011;4876;42.656;23.292;2023-06-10T09:19:54;5.90;;;4.00;;
9675;SDS011;4876;42.656;23.292;2023-06-10T09:22:23;5.20;;;3.87;;
9675;SDS011;4876;42.656;23.292;2023-06-10T09:24:52;6.47;;;4.60;;
9675;SDS011;4876;42.656;23.292;2023-06-10T09:27:29;4.88;;;4.38;;
9675;SDS011;4876;42.656;23.292;2023-06-10T09:29:56;6.32;;;5.00;;
9675;SDS011;4876;42.656;23.292;2023-06-10T09:32:24;5.85;;;4.95;;
9675;SDS011;4876;42.656;23.292;2023-06-10T09:34:51;7.43;;;4.43;;
9675;SDS011;4876;42.656;23.292;2023-06-10T09:37:19;7.93;;;4.47;;
9675;SDS011;4876;42.656;23.292;2023-06-10T09:40:01;4.97;;;3.90;;
9675;SDS011;4876;42.656;23.292;2023-06-10T09:42:32;5.13;;;4.10;;
9675;SDS011;4876;42.656;23.292;2023-06-10T09:45:00;9.63;;;5.60;;
9675;SDS011;4876;42.656;23.292;2023-06-10T09:47:27;8.07;;;5.07;;
9675;SDS011;4876;42.656;23.292;2023-06-10T09:49:53;5.10;;;4.13;;
9675;SDS011;4876;42.656;23.292;2023-06-10T09:52:23;6.03;;;4.83;;
9675;SDS011;4876;42.656;23.292;2023-06-10T09:54:51;5.03;;;4.53;;
9675;SDS011;4876;42.656;23.292;2023-06-10T09:57:20;7.00;;;4.40;;
9675;SDS011;4876;42.656;23.292;2023-06-10T09:59:47;4.60;;;4.07;;
9675;SDS011;4876;42.656;23.292;2023-06-10T10:02:18;6.93;;;4.53;;
9675;SDS011;4876;42.656;23.292;2023-06-10T10:04:45;5.80;;;4.03;;
9675;SDS011;4876;42.656;23.292;2023-06-10T10:07:12;5.10;;;4.60;;
9675;SDS011;4876;42.656;23.292;2023-06-10T10:09:39;5.33;;;4.60;;
9675;SDS011;4876;42.656;23.292;2023-06-10T10:12:09;7.37;;;4.47;;
9675;SDS011;4876;42.656;23.292;2023-06-10T10:14:38;4.83;;;4.07;;
9675;SDS011;4876;42.656;23.292;2023-06-10T10:17:07;4.60;;;4.20;;
9675;SDS011;4876;42.656;23.292;2023-06-10T10:19:37;6.47;;;4.07;;
9675;SDS011;4876;42.656;23.292;2023-06-10T10:22:11;6.43;;;4.17;;
9675;SDS011;4876;42.656;23.292;2023-06-10T10:24:46;6.05;;;4.93;;
9675;SDS011;4876;42.656;23.292;2023-06-10T10:27:17;6.13;;;4.25;;
9675;SDS011;4876;42.656;23.292;2023-06-10T10:29:55;8.10;;;3.90;;
9675;SDS011;4876;42.656;23.292;2023-06-10T10:32:26;4.75;;;3.65;;
9675;SDS011;4876;42.656;23.292;2023-06-10T10:35:01;3.50;;;3.20;;
9675;SDS011;4876;42.656;23.292;2023-06-10T10:37:33;6.82;;;3.25;;
9675;SDS011;4876;42.656;23.292;2023-06-10T10:40:01;7.75;;;3.70;;
9675;SDS011;4876;42.656;23.292;2023-06-10T10:42:30;6.90;;;3.80;;
9675;SDS011;4876;42.656;23.292;2023-06-10T10:44:59;5.13;;;3.70;;
9675;SDS011;4876;42.656;23.292;2023-06-10T10:47:26;5.30;;;3.87;;
9675;SDS011;4876;42.656;23.292;2023-06-10T10:49:55;13.47;;;3.77;;
9675;SDS011;4876;42.656;23.292;2023-06-10T10:52:24;6.17;;;3.60;;
9675;SDS011;4876;42.656;23.292;2023-06-10T10:54:52;4.73;;;3.50;;
9675;SDS011;4876;42.656;23.292;2023-06-10T10:57:19;6.57;;;4.23;;
9675;SDS011;4876;42.656;23.292;2023-06-10T10:59:57;8.33;;;4.23;;
9675;SDS011;4876;42.656;23.292;2023-06-10T11:02:33;7.93;;;3.83;;
9675;SDS011;4876;42.656;23.292;2023-06-10T11:05:08;3.50;;;3.20;;
9675;SDS011;4876;42.656;23.292;2023-06-10T11:07:36;3.77;;;3.40;;
9675;SDS011;4876;42.656;23.292;2023-06-10T11:10:06;7.67;;;3.60;;
9675;SDS011;4876;42.656;23.292;2023-06-10T11:12:40;4.00;;;3.17;;
9675;SDS011;4876;42.656;23.292;2023-06-10T11:15:09;5.77;;;3.17;;
9675;SDS011;4876;42.656;23.292;2023-06-10T11:17:36;5.70;;;3.60;;
9675;SDS011;4876;42.656;23.292;2023-06-10T11:20:03;5.43;;;3.50;;
9675;SDS011;4876;42.656;23.292;2023-06-10T11:22:30;6.25;;;3.38;;
9675;SDS011;4876;42.656;23.292;2023-06-10T11:24:57;4.88;;;3.42;;
9675;SDS011;4876;42.656;23.292;2023-06-10T11:27:24;5.87;;;4.00;;
9675;SDS011;4876;42.656;23.292;2023-06-10T11:29:58;3.92;;;3.60;;
9675;SDS011;4876;42.656;23.292;2023-06-10T11:32:29;5.87;;;3.97;;
9675;SDS011;4876;42.656;23.292;2023-06-10T11:34:57;3.33;;;3.03;;
9675;SDS011;4876;42.656;23.292;2023-06-10T11:37:23;5.60;;;4.60;;
9675;SDS011;4876;42.656;23.292;2023-06-10T11:39:51;12.53;;;4.73;;
9675;SDS011;4876;42.656;23.292;2023-06-10T11:42:19;4.10;;;3.70;;
9675;SDS011;4876;42.656;23.292;2023-06-10T11:44:48;5.70;;;4.20;;
9675;SDS011;4876;42.656;23.292;2023-06-10T11:47:16;6.30;;;4.40;;
9675;SDS011;4876;42.656;23.292;2023-06-10T11:49:44;4.80;;;4.30;;
9675;SDS011;4876;42.656;23.292;2023-06-10T11:52:11;4.70;;;4.00;;
9675;SDS011;4876;42.656;23.292;2023-06-10T11:54:38;6.13;;;4.53;;
9675;SDS011;4876;42.656;23.292;2023-06-10T11:57:05;5.17;;;4.10;;
9675;SDS011;4876;42.656;23.292;2023-06-10T11:59:34;7.60;;;4.00;;
9675;SDS011;4876;42.656;23.292;2023-06-10T12:02:01;7.97;;;4.07;;
9675;SDS011;4876;42.656;23.292;2023-06-10T12:04:28;6.93;;;4.23;;
9675;SDS011;4876;42.656;23.292;2023-06-10T12:06:56;4.87;;;4.47;;
9675;SDS011;4876;42.656;23.292;2023-06-10T12:09:23;8.07;;;4.60;;
9675;SDS011;4876;42.656;23.292;2023-06-10T12:11:51;7.20;;;4.50;;
9675;SDS011;4876;42.656;23.292;2023-06-10T12:17:23;8.33;;;5.10;;
9675;SDS011;4876;42.656;23.292;2023-06-10T12:20:02;6.13;;;4.27;;
9675;SDS011;4876;42.656;23.292;2023-06-10T12:22:36;5.70;;;4.50;;
9675;SDS011;4876;42.656;23.292;2023-06-10T12:25:04;5.87;;;4.40;;
9675;SDS011;4876;42.656;23.292;2023-06-10T12:27:33;4.90;;;4.43;;
9675;SDS011;4876;42.656;23.292;2023-06-10T12:30:01;6.23;;;4.60;;
9675;SDS011;4876;42.656;23.292;2023-06-10T12:32:36;9.07;;;4.33;;
9675;SDS011;4876;42.656;23.292;2023-06-10T12:35:05;4.30;;;3.93;;
9675;SDS011;4876;42.656;23.292;2023-06-10T12:37:32;7.13;;;4.37;;
9675;SDS011;4876;42.656;23.292;2023-06-10T12:40:01;5.67;;;4.30;;
9675;SDS011;4876;42.656;23.292;2023-06-10T12:42:29;6.10;;;4.23;;
9675;SDS011;4876;42.656;23.292;2023-06-10T12:44:56;6.77;;;3.97;;
9675;SDS011;4876;42.656;23.292;2023-06-10T12:47:29;4.30;;;3.90;;
9675;SDS011;4876;42.656;23.292;2023-06-10T12:49:58;9.50;;;3.47;;
9675;SDS011;4876;42.656;23.292;2023-06-10T12:52:25;10.00;;;3.38;;
9675;SDS011;4876;42.656;23.292;2023-06-10T12:54:52;4.23;;;3.63;;
9675;SDS011;4876;42.656;23.292;2023-06-10T12:57:21;4.65;;;3.60;;
9675;SDS011;4876;42.656;23.292;2023-06-10T12:59:48;8.50;;;3.95;;
9675;SDS011;4876;42.656;23.292;2023-06-10T13:02:17;5.03;;;3.75;;
9675;SDS011;4876;42.656;23.292;2023-06-10T13:04:46;7.20;;;3.55;;
9675;SDS011;4876;42.656;23.292;2023-06-10T13:07:13;6.90;;;3.45;;
9675;SDS011;4876;42.656;23.292;2023-06-10T13:09:39;4.75;;;3.38;;
9675;SDS011;4876;42.656;23.292;2023-06-10T13:12:06;4.75;;;3.40;;
9675;SDS011;4876;42.656;23.292;2023-06-10T13:14:36;4.25;;;3.80;;
9675;SDS011;4876;42.656;23.292;2023-06-10T13:17:04;3.55;;;3.20;;
9675;SDS011;4876;42.656;23.292;2023-06-10T13:19:31;6.97;;;3.85;;
9675;SDS011;4876;42.656;23.292;2023-06-10T13:21:58;4.47;;;3.55;;
9675;SDS011;4876;42.656;23.292;2023-06-10T13:24:43;5.80;;;3.97;;
9675;SDS011;4876;42.656;23.292;2023-06-10T13:27:10;8.57;;;4.53;;
9675;SDS011;4876;42.656;23.292;2023-06-10T13:29:40;6.90;;;4.30;;
9675;SDS011;4876;42.656;23.292;2023-06-10T13:32:07;12.07;;;4.60;;
9675;SDS011;4876;42.656;23.292;2023-06-10T13:34:35;12.33;;;4.60;;
9675;SDS011;4876;42.656;23.292;2023-06-10T13:37:02;10.07;;;5.40;;
9675;SDS011;4876;42.656;23.292;2023-06-10T13:39:30;14.23;;;4.87;;
9675;SDS011;4876;42.656;23.292;2023-06-10T13:41:57;8.43;;;4.63;;
9675;SDS011;4876;42.656;23.292;2023-06-10T13:44:24;5.43;;;4.53;;
9675;SDS011;4876;42.656;23.292;2023-06-10T13:46:52;7.10;;;4.07;;
9675;SDS011;4876;42.656;23.292;2023-06-10T13:49:19;10.53;;;4.40;;
9675;SDS011;4876;42.656;23.292;2023-06-10T13:51:46;9.90;;;4.30;;
9675;SDS011;4876;42.656;23.292;2023-06-10T13:54:13;6.23;;;4.27;;
9675;SDS011;4876;42.656;23.292;2023-06-10T13:56:40;8.80;;;5.17;;
9675;SDS011;4876;42.656;23.292;2023-06-10T13:59:07;7.17;;;4.47;;
9675;SDS011;4876;42.656;23.292;2023-06-10T14:01:34;5.37;;;4.87;;
9675;SDS011;4876;42.656;23.292;2023-06-10T14:04:02;8.17;;;4.83;;
9675;SDS011;4876;42.656;23.292;2023-06-10T14:06:29;5.20;;;4.70;;
9675;SDS011;4876;42.656;23.292;2023-06-10T14:08:57;6.77;;;4.50;;
9675;SDS011;4876;42.656;23.292;2023-06-10T14:11:24;5.90;;;4.70;;
9675;SDS011;4876;42.656;23.292;2023-06-10T14:13:51;12.43;;;4.57;;
9675;SDS011;4876;42.656;23.292;2023-06-10T14:16:18;6.07;;;4.50;;
9675;SDS011;4876;42.656;23.292;2023-06-10T14:18:44;7.40;;;4.20;;
9675;SDS011;4876;42.656;23.292;2023-06-10T14:21:12;10.17;;;4.37;;
9675;SDS011;4876;42.656;23.292;2023-06-10T14:23:39;8.57;;;4.00;;
9675;SDS011;4876;42.656;23.292;2023-06-10T14:26:06;4.90;;;4.40;;
9675;SDS011;4876;42.656;23.292;2023-06-10T14:28:33;8.77;;;4.80;;
9675;SDS011;4876;42.656;23.292;2023-06-10T14:31:00;4.97;;;4.47;;
9675;SDS011;4876;42.656;23.292;2023-06-10T14:33:27;10.53;;;4.30;;
9675;SDS011;4876;42.656;23.292;2023-06-10T14:35:56;5.87;;;4.13;;
9675;SDS011;4876;42.656;23.292;2023-06-10T14:38:24;5.60;;;4.43;;
9675;SDS011;4876;42.656;23.292;2023-06-10T14:40:51;7.23;;;4.20;;
9675;SDS011;4876;42.656;23.292;2023-06-10T14:43:18;4.70;;;4.20;;
9675;SDS011;4876;42.656;23.292;2023-06-10T14:45:45;5.90;;;4.50;;
9675;SDS011;4876;42.656;23.292;2023-06-10T14:48:12;4.53;;;4.07;;
9675;SDS011;4876;42.656;23.292;2023-06-10T14:50:38;5.00;;;4.03;;
9675;SDS011;4876;42.656;23.292;2023-06-10T14:53:07;5.90;;;3.63;;
9675;SDS011;4876;42.656;23.292;2023-06-10T14:55:35;5.93;;;4.37;;
9675;SDS011;4876;42.656;23.292;2023-06-10T14:58:02;5.33;;;4.27;;
9675;SDS011;4876;42.656;23.292;2023-06-10T15:00:28;6.10;;;4.97;;